sensor_id;sensor_type;location;lat;lon;timestamp;temperature;humidity
29453;DHT22;16424;50.956;5.320;2023-03-11T00:00:41;2.10;99.90
29453;DHT22;16424;50.956;5.320;2023-03-11T00:03:08;2.30;99.90
29453;DHT22;16424;50.956;5.320;2023-03-11T00:05:39;2.40;99.90
29453;DHT22;16424;50.956;5.320;2023-03-11T00:08:07;2.20;99.90
29453;DHT22;16424;50.956;5.320;2023-03-11T00:10:39;2.20;99.90
29453;DHT22;16424;50.956;5.320;2023-03-11T00:13:06;2.20;99.90
29453;DHT22;16424;50.956;5.320;2023-03-11T00:15:32;2.20;99.90
29453;DHT22;16424;50.956;5.320;2023-03-11T00:17:58;2.30;99.90
29453;DHT22;16424;50.956;5.320;2023-03-11T00:20:27;2.30;99.90
29453;DHT22;16424;50.956;5.320;2023-03-11T00:22:53;2.20;99.90
29453;DHT22;16424;50.956;5.320;2023-03-11T00:25:21;2.30;99.90
29453;DHT22;16424;50.956;5.320;2023-03-11T00:27:47;2.10;99.90
29453;DHT22;16424;50.956;5.320;2023-03-11T00:30:13;2.10;99.90
29453;DHT22;16424;50.956;5.320;2023-03-11T00:32:40;2.10;99.90
29453;DHT22;16424;50.956;5.320;2023-03-11T00:35:06;2.20;99.90
29453;DHT22;16424;50.956;5.320;2023-03-11T00:37:32;2.20;99.90
29453;DHT22;16424;50.956;5.320;2023-03-11T00:39:58;2.10;99.90
29453;DHT22;16424;50.956;5.320;2023-03-11T00:42:24;1.90;99.90
29453;DHT22;16424;50.956;5.320;2023-03-11T00:44:50;1.90;99.90
29453;DHT22;16424;50.956;5.320;2023-03-11T00:47:15;1.90;99.90
29453;DHT22;16424;50.956;5.320;2023-03-11T00:49:41;1.90;99.90
29453;DHT22;16424;50.956;5.320;2023-03-11T00:52:07;2.10;99.90
29453;DHT22;16424;50.956;5.320;2023-03-11T00:54:33;2.20;99.90
29453;DHT22;16424;50.956;5.320;2023-03-11T00:56:59;2.40;99.90
29453;DHT22;16424;50.956;5.320;2023-03-11T00:59:24;2.50;99.90
29453;DHT22;16424;50.956;5.320;2023-03-11T01:01:50;2.50;99.90
29453;DHT22;16424;50.956;5.320;2023-03-11T01:04:16;2.40;99.90
29453;DHT22;16424;50.956;5.320;2023-03-11T01:06:41;2.40;99.90
29453;DHT22;16424;50.956;5.320;2023-03-11T01:09:07;2.40;99.90
29453;DHT22;16424;50.956;5.320;2023-03-11T01:11:33;2.50;99.90
29453;DHT22;16424;50.956;5.320;2023-03-11T01:13:58;2.60;99.90
29453;DHT22;16424;50.956;5.320;2023-03-11T01:16:24;2.50;99.90
29453;DHT22;16424;50.956;5.320;2023-03-11T01:18:50;2.40;99.90
29453;DHT22;16424;50.956;5.320;2023-03-11T01:21:15;2.40;99.90
29453;DHT22;16424;50.956;5.320;2023-03-11T01:23:41;2.30;99.90
29453;DHT22;16424;50.956;5.320;2023-03-11T01:26:07;2.30;99.90
29453;DHT22;16424;50.956;5.320;2023-03-11T01:28:33;2.40;99.90
29453;DHT22;16424;50.956;5.320;2023-03-11T01:30:59;2.50;99.90
29453;DHT22;16424;50.956;5.320;2023-03-11T01:33:24;2.60;99.90
29453;DHT22;16424;50.956;5.320;2023-03-11T01:35:50;2.70;99.90
29453;DHT22;16424;50.956;5.320;2023-03-11T01:38:16;2.80;99.90
29453;DHT22;16424;50.956;5.320;2023-03-11T01:40:44;2.80;99.90
29453;DHT22;16424;50.956;5.320;2023-03-11T01:48:28;2.50;99.90
29453;DHT22;16424;50.956;5.320;2023-03-11T01:50:55;2.60;99.90
29453;DHT22;16424;50.956;5.320;2023-03-11T01:53:22;2.40;99.90
29453;DHT22;16424;50.956;5.320;2023-03-11T01:55:49;2.30;99.90
29453;DHT22;16424;50.956;5.320;2023-03-11T01:58:18;2.30;99.90
29453;DHT22;16424;50.956;5.320;2023-03-11T02:00:45;2.40;99.90
29453;DHT22;16424;50.956;5.320;2023-03-11T02:03:25;2.50;99.90
29453;DHT22;16424;50.956;5.320;2023-03-11T02:05:52;2.60;99.90
29453;DHT22;16424;50.956;5.320;2023-03-11T02:08:20;2.60;99.90
29453;DHT22;16424;50.956;5.320;2023-03-11T02:10:46;2.60;99.90
29453;DHT22;16424;50.956;5.320;2023-03-11T02:13:13;2.50;99.90
29453;DHT22;16424;50.956;5.320;2023-03-11T02:15:39;2.60;99.90
29453;DHT22;16424;50.956;5.320;2023-03-11T02:18:05;2.50;99.90
29453;DHT22;16424;50.956;5.320;2023-03-11T02:23:07;2.30;99.90
29453;DHT22;16424;50.956;5.320;2023-03-11T02:28:11;2.50;99.90
29453;DHT22;16424;50.956;5.320;2023-03-11T02:30:40;2.40;99.90
29453;DHT22;16424;50.956;5.320;2023-03-11T02:33:07;2.40;99.90
29453;DHT22;16424;50.956;5.320;2023-03-11T02:35:33;2.30;99.90
29453;DHT22;16424;50.956;5.320;2023-03-11T02:37:58;2.20;99.90
29453;DHT22;16424;50.956;5.320;2023-03-11T02:43:05;2.00;99.90
29453;DHT22;16424;50.956;5.320;2023-03-11T02:45:32;2.10;99.90
29453;DHT22;16424;50.956;5.320;2023-03-11T02:47:58;2.20;99.90
29453;DHT22;16424;50.956;5.320;2023-03-11T02:50:25;2.10;99.90
29453;DHT22;16424;50.956;5.320;2023-03-11T02:52:53;1.90;99.90
29453;DHT22;16424;50.956;5.320;2023-03-11T02:55:19;1.90;99.90
29453;DHT22;16424;50.956;5.320;2023-03-11T02:57:48;1.90;99.90
29453;DHT22;16424;50.956;5.320;2023-03-11T03:00:15;2.00;99.90
29453;DHT22;16424;50.956;5.320;2023-03-11T03:02:42;2.00;99.90
29453;DHT22;16424;50.956;5.320;2023-03-11T03:05:09;2.10;99.90
29453;DHT22;16424;50.956;5.320;2023-03-11T03:07:35;2.20;99.90
29453;DHT22;16424;50.956;5.320;2023-03-11T03:10:02;2.20;99.90
29453;DHT22;16424;50.956;5.320;2023-03-11T03:12:28;2.20;99.90
29453;DHT22;16424;50.956;5.320;2023-03-11T03:14:54;2.20;99.90
29453;DHT22;16424;50.956;5.320;2023-03-11T03:17:19;2.30;99.90
29453;DHT22;16424;50.956;5.320;2023-03-11T03:19:45;2.40;99.90
29453;DHT22;16424;50.956;5.320;2023-03-11T03:22:11;2.30;99.90
29453;DHT22;16424;50.956;5.320;2023-03-11T03:24:36;2.30;99.90
29453;DHT22;16424;50.956;5.320;2023-03-11T03:27:02;2.30;99.90
29453;DHT22;16424;50.956;5.320;2023-03-11T03:29:27;2.30;99.90
29453;DHT22;16424;50.956;5.320;2023-03-11T03:31:53;2.30;99.90
29453;DHT22;16424;50.956;5.320;2023-03-11T03:34:19;2.30;99.90
29453;DHT22;16424;50.956;5.320;2023-03-11T03:36:44;2.20;99.90
29453;DHT22;16424;50.956;5.320;2023-03-11T03:39:10;2.10;99.90
29453;DHT22;16424;50.956;5.320;2023-03-11T03:41:36;2.10;99.90
29453;DHT22;16424;50.956;5.320;2023-03-11T03:44:03;2.00;99.90
29453;DHT22;16424;50.956;5.320;2023-03-11T03:46:29;2.10;99.90
29453;DHT22;16424;50.956;5.320;2023-03-11T03:48:54;2.20;99.90
29453;DHT22;16424;50.956;5.320;2023-03-11T03:51:20;2.20;99.90
29453;DHT22;16424;50.956;5.320;2023-03-11T03:53:46;2.20;99.90
29453;DHT22;16424;50.956;5.320;2023-03-11T03:56:17;2.10;99.90
29453;DHT22;16424;50.956;5.320;2023-03-11T03:58:43;2.10;99.90
29453;DHT22;16424;50.956;5.320;2023-03-11T04:01:09;2.10;99.90
29453;DHT22;16424;50.956;5.320;2023-03-11T04:03:35;2.20;99.90
29453;DHT22;16424;50.956;5.320;2023-03-11T04:06:16;2.30;99.90
29453;DHT22;16424;50.956;5.320;2023-03-11T04:08:42;2.20;99.90
29453;DHT22;16424;50.956;5.320;2023-03-11T04:11:08;2.20;99.90
29453;DHT22;16424;50.956;5.320;2023-03-11T04:13:34;2.10;99.90
29453;DHT22;16424;50.956;5.320;2023-03-11T04:16:03;2.10;99.90
29453;DHT22;16424;50.956;5.320;2023-03-11T04:18:28;2.10;99.90
29453;DHT22;16424;50.956;5.320;2023-03-11T04:20:54;2.10;99.90
29453;DHT22;16424;50.956;5.320;2023-03-11T04:23:20;2.10;99.90
29453;DHT22;16424;50.956;5.320;2023-03-11T04:25:45;2.10;99.90
29453;DHT22;16424;50.956;5.320;2023-03-11T04:28:11;2.20;99.90
29453;DHT22;16424;50.956;5.320;2023-03-11T04:30:38;2.10;99.90
29453;DHT22;16424;50.956;5.320;2023-03-11T04:33:04;2.10;99.90
29453;DHT22;16424;50.956;5.320;2023-03-11T04:35:30;2.10;99.90
29453;DHT22;16424;50.956;5.320;2023-03-11T04:37:56;2.00;99.90
29453;DHT22;16424;50.956;5.320;2023-03-11T04:40:21;2.00;99.90
29453;DHT22;16424;50.956;5.320;2023-03-11T04:42:47;1.90;99.90
29453;DHT22;16424;50.956;5.320;2023-03-11T04:45:13;1.90;99.90
29453;DHT22;16424;50.956;5.320;2023-03-11T04:47:38;1.80;99.90
29453;DHT22;16424;50.956;5.320;2023-03-11T04:50:05;1.70;99.90
29453;DHT22;16424;50.956;5.320;2023-03-11T04:52:30;1.70;99.90
29453;DHT22;16424;50.956;5.320;2023-03-11T04:54:56;1.70;99.90
29453;DHT22;16424;50.956;5.320;2023-03-11T04:57:21;1.70;99.90
29453;DHT22;16424;50.956;5.320;2023-03-11T04:59:47;1.60;99.90
29453;DHT22;16424;50.956;5.320;2023-03-11T05:02:13;1.60;99.90
29453;DHT22;16424;50.956;5.320;2023-03-11T05:04:38;1.60;99.90
29453;DHT22;16424;50.956;5.320;2023-03-11T05:07:04;1.60;99.90
29453;DHT22;16424;50.956;5.320;2023-03-11T05:09:30;1.60;99.90
29453;DHT22;16424;50.956;5.320;2023-03-11T05:11:55;1.50;99.90
29453;DHT22;16424;50.956;5.320;2023-03-11T05:14:21;1.60;99.90
29453;DHT22;16424;50.956;5.320;2023-03-11T05:16:47;1.60;99.90
29453;DHT22;16424;50.956;5.320;2023-03-11T05:19:12;1.50;99.90
29453;DHT22;16424;50.956;5.320;2023-03-11T05:21:57;1.50;99.90
29453;DHT22;16424;50.956;5.320;2023-03-11T05:24:23;1.50;99.90
29453;DHT22;16424;50.956;5.320;2023-03-11T05:26:50;1.50;99.90
29453;DHT22;16424;50.956;5.320;2023-03-11T05:29:16;1.40;99.90
29453;DHT22;16424;50.956;5.320;2023-03-11T05:31:42;1.40;99.90
29453;DHT22;16424;50.956;5.320;2023-03-11T05:34:08;1.40;99.90
29453;DHT22;16424;50.956;5.320;2023-03-11T05:36:33;1.30;99.90
29453;DHT22;16424;50.956;5.320;2023-03-11T05:38:59;1.30;99.90
29453;DHT22;16424;50.956;5.320;2023-03-11T05:41:24;1.20;99.90
29453;DHT22;16424;50.956;5.320;2023-03-11T05:43:50;1.20;99.90
29453;DHT22;16424;50.956;5.320;2023-03-11T05:46:16;1.20;99.90
29453;DHT22;16424;50.956;5.320;2023-03-11T05:48:41;1.20;99.90
29453;DHT22;16424;50.956;5.320;2023-03-11T05:51:11;1.20;99.90
29453;DHT22;16424;50.956;5.320;2023-03-11T05:53:36;1.20;99.90
29453;DHT22;16424;50.956;5.320;2023-03-11T05:56:03;1.20;99.90
29453;DHT22;16424;50.956;5.320;2023-03-11T05:58:30;1.20;99.90
29453;DHT22;16424;50.956;5.320;2023-03-11T06:00:56;1.20;99.90
29453;DHT22;16424;50.956;5.320;2023-03-11T06:03:24;1.20;99.90
29453;DHT22;16424;50.956;5.320;2023-03-11T06:05:50;1.10;99.90
29453;DHT22;16424;50.956;5.320;2023-03-11T06:08:17;1.10;99.90
29453;DHT22;16424;50.956;5.320;2023-03-11T06:10:43;1.10;99.90
29453;DHT22;16424;50.956;5.320;2023-03-11T06:13:09;1.10;99.90
29453;DHT22;16424;50.956;5.320;2023-03-11T06:15:36;1.10;99.90
29453;DHT22;16424;50.956;5.320;2023-03-11T06:18:03;1.20;99.90
29453;DHT22;16424;50.956;5.320;2023-03-11T06:20:29;1.20;99.90
29453;DHT22;16424;50.956;5.320;2023-03-11T06:22:55;1.20;99.90
29453;DHT22;16424;50.956;5.320;2023-03-11T06:25:22;1.30;99.90
29453;DHT22;16424;50.956;5.320;2023-03-11T06:27:48;1.40;99.90
29453;DHT22;16424;50.956;5.320;2023-03-11T06:30:16;1.50;99.90
29453;DHT22;16424;50.956;5.320;2023-03-11T06:32:46;1.60;99.90
29453;DHT22;16424;50.956;5.320;2023-03-11T06:35:12;1.50;99.90
29453;DHT22;16424;50.956;5.320;2023-03-11T06:37:38;1.60;99.90
29453;DHT22;16424;50.956;5.320;2023-03-11T06:40:05;1.70;99.90
29453;DHT22;16424;50.956;5.320;2023-03-11T06:42:32;1.80;99.90
29453;DHT22;16424;50.956;5.320;2023-03-11T06:44:58;1.90;99.90
29453;DHT22;16424;50.956;5.320;2023-03-11T06:47:24;2.00;99.90
29453;DHT22;16424;50.956;5.320;2023-03-11T06:49:51;2.00;99.90
29453;DHT22;16424;50.956;5.320;2023-03-11T06:52:16;2.10;99.90
29453;DHT22;16424;50.956;5.320;2023-03-11T06:54:42;2.10;99.90
29453;DHT22;16424;50.956;5.320;2023-03-11T06:57:09;2.10;99.90
29453;DHT22;16424;50.956;5.320;2023-03-11T06:59:35;2.10;99.90
29453;DHT22;16424;50.956;5.320;2023-03-11T07:02:02;2.00;99.90
29453;DHT22;16424;50.956;5.320;2023-03-11T07:04:29;2.00;99.90
29453;DHT22;16424;50.956;5.320;2023-03-11T07:06:55;2.20;99.90
29453;DHT22;16424;50.956;5.320;2023-03-11T07:09:21;2.70;99.90
29453;DHT22;16424;50.956;5.320;2023-03-11T07:11:50;3.20;99.90
29453;DHT22;16424;50.956;5.320;2023-03-11T07:14:16;3.80;99.90
29453;DHT22;16424;50.956;5.320;2023-03-11T07:16:42;4.50;99.90
29453;DHT22;16424;50.956;5.320;2023-03-11T07:19:08;5.30;99.90
29453;DHT22;16424;50.956;5.320;2023-03-11T07:21:34;6.00;99.90
29453;DHT22;16424;50.956;5.320;2023-03-11T07:24:01;6.70;99.90
29453;DHT22;16424;50.956;5.320;2023-03-11T07:26:28;7.40;99.90
29453;DHT22;16424;50.956;5.320;2023-03-11T07:28:55;8.30;99.90
29453;DHT22;16424;50.956;5.320;2023-03-11T07:31:24;9.00;99.90
29453;DHT22;16424;50.956;5.320;2023-03-11T07:33:50;9.60;99.90
29453;DHT22;16424;50.956;5.320;2023-03-11T07:36:18;10.20;99.90
29453;DHT22;16424;50.956;5.320;2023-03-11T07:38:44;10.50;99.90
29453;DHT22;16424;50.956;5.320;2023-03-11T07:41:11;10.70;99.90
29453;DHT22;16424;50.956;5.320;2023-03-11T07:43:37;10.90;99.90
29453;DHT22;16424;50.956;5.320;2023-03-11T07:46:10;11.00;99.90
29453;DHT22;16424;50.956;5.320;2023-03-11T07:48:37;11.10;99.90
29453;DHT22;16424;50.956;5.320;2023-03-11T07:51:06;11.20;99.90
29453;DHT22;16424;50.956;5.320;2023-03-11T07:53:34;11.20;99.90
29453;DHT22;16424;50.956;5.320;2023-03-11T07:56:00;11.30;99.90
29453;DHT22;16424;50.956;5.320;2023-03-11T07:58:26;11.50;99.90
29453;DHT22;16424;50.956;5.320;2023-03-11T08:00:52;11.60;99.90
29453;DHT22;16424;50.956;5.320;2023-03-11T08:03:19;11.80;99.90
29453;DHT22;16424;50.956;5.320;2023-03-11T08:05:45;11.80;99.90
29453;DHT22;16424;50.956;5.320;2023-03-11T08:08:11;12.00;99.90
29453;DHT22;16424;50.956;5.320;2023-03-11T08:10:37;11.90;99.90
29453;DHT22;16424;50.956;5.320;2023-03-11T08:13:03;11.90;99.90
29453;DHT22;16424;50.956;5.320;2023-03-11T08:15:29;11.90;99.90
29453;DHT22;16424;50.956;5.320;2023-03-11T08:17:54;12.10;99.90
29453;DHT22;16424;50.956;5.320;2023-03-11T08:20:20;12.40;99.90
29453;DHT22;16424;50.956;5.320;2023-03-11T08:22:46;12.80;99.90
29453;DHT22;16424;50.956;5.320;2023-03-11T08:25:11;12.00;99.90
29453;DHT22;16424;50.956;5.320;2023-03-11T08:27:37;12.30;99.90
29453;DHT22;16424;50.956;5.320;2023-03-11T08:30:04;12.50;99.90
29453;DHT22;16424;50.956;5.320;2023-03-11T08:32:30;12.80;99.90
29453;DHT22;16424;50.956;5.320;2023-03-11T08:34:57;12.80;99.90
29453;DHT22;16424;50.956;5.320;2023-03-11T08:37:22;13.20;99.90
29453;DHT22;16424;50.956;5.320;2023-03-11T08:39:48;13.40;99.90
29453;DHT22;16424;50.956;5.320;2023-03-11T08:42:15;13.70;99.90
29453;DHT22;16424;50.956;5.320;2023-03-11T08:44:41;13.30;99.90
29453;DHT22;16424;50.956;5.320;2023-03-11T08:47:08;13.80;99.90
29453;DHT22;16424;50.956;5.320;2023-03-11T08:49:33;13.80;99.90
29453;DHT22;16424;50.956;5.320;2023-03-11T08:52:00;13.90;99.90
29453;DHT22;16424;50.956;5.320;2023-03-11T08:54:26;13.80;99.90
29453;DHT22;16424;50.956;5.320;2023-03-11T08:56:52;13.50;99.90
29453;DHT22;16424;50.956;5.320;2023-03-11T08:59:17;13.80;99.90
29453;DHT22;16424;50.956;5.320;2023-03-11T09:01:43;14.10;99.90
29453;DHT22;16424;50.956;5.320;2023-03-11T09:04:09;14.20;99.90
29453;DHT22;16424;50.956;5.320;2023-03-11T09:06:34;14.20;99.90
29453;DHT22;16424;50.956;5.320;2023-03-11T09:09:00;13.20;99.90
29453;DHT22;16424;50.956;5.320;2023-03-11T09:11:26;13.10;99.90
29453;DHT22;16424;50.956;5.320;2023-03-11T09:13:51;12.90;99.90
29453;DHT22;16424;50.956;5.320;2023-03-11T09:16:20;13.40;99.90
29453;DHT22;16424;50.956;5.320;2023-03-11T09:18:46;13.60;99.90
29453;DHT22;16424;50.956;5.320;2023-03-11T09:21:12;13.60;99.90
29453;DHT22;16424;50.956;5.320;2023-03-11T09:23:38;13.60;99.90
29453;DHT22;16424;50.956;5.320;2023-03-11T09:26:04;13.40;99.90
29453;DHT22;16424;50.956;5.320;2023-03-11T09:28:30;13.60;99.90
29453;DHT22;16424;50.956;5.320;2023-03-11T09:30:56;13.60;99.90
29453;DHT22;16424;50.956;5.320;2023-03-11T09:33:22;13.60;99.90
29453;DHT22;16424;50.956;5.320;2023-03-11T09:35:47;13.80;99.90
29453;DHT22;16424;50.956;5.320;2023-03-11T09:38:13;13.90;99.90
29453;DHT22;16424;50.956;5.320;2023-03-11T09:41:00;14.00;99.90
29453;DHT22;16424;50.956;5.320;2023-03-11T09:43:34;14.00;99.90
29453;DHT22;16424;50.956;5.320;2023-03-11T09:48:48;12.50;99.50
29453;DHT22;16424;50.956;5.320;2023-03-11T09:51:26;11.50;98.20
29453;DHT22;16424;50.956;5.320;2023-03-11T09:54:09;11.60;99.90
29453;DHT22;16424;50.956;5.320;2023-03-11T09:56:37;11.70;98.40
29453;DHT22;16424;50.956;5.320;2023-03-11T09:59:13;11.60;98.60
29453;DHT22;16424;50.956;5.320;2023-03-11T10:01:43;11.60;98.80
29453;DHT22;16424;50.956;5.320;2023-03-11T10:07:20;10.30;99.60
29453;DHT22;16424;50.956;5.320;2023-03-11T10:09:53;10.00;99.90
29453;DHT22;16424;50.956;5.320;2023-03-11T10:15:21;11.10;99.90
29453;DHT22;16424;50.956;5.320;2023-03-11T10:17:56;11.40;99.90
29453;DHT22;16424;50.956;5.320;2023-03-11T10:26:16;11.00;99.90
29453;DHT22;16424;50.956;5.320;2023-03-11T10:29:14;11.00;99.90
29453;DHT22;16424;50.956;5.320;2023-03-11T10:31:46;10.30;99.70
29453;DHT22;16424;50.956;5.320;2023-03-11T10:34:28;9.80;99.90
29453;DHT22;16424;50.956;5.320;2023-03-11T10:39:23;9.70;99.90
29453;DHT22;16424;50.956;5.320;2023-03-11T10:41:55;9.70;99.90
29453;DHT22;16424;50.956;5.320;2023-03-11T10:44:30;9.30;99.90
29453;DHT22;16424;50.956;5.320;2023-03-11T10:46:56;9.30;99.90
29453;DHT22;16424;50.956;5.320;2023-03-11T10:49:22;9.40;99.90
29453;DHT22;16424;50.956;5.320;2023-03-11T10:51:51;9.60;99.90
29453;DHT22;16424;50.956;5.320;2023-03-11T10:57:18;10.00;99.90
29453;DHT22;16424;50.956;5.320;2023-03-11T11:04:48;8.80;99.90
29453;DHT22;16424;50.956;5.320;2023-03-11T11:07:26;8.50;99.90
29453;DHT22;16424;50.956;5.320;2023-03-11T11:12:47;8.50;99.90
29453;DHT22;16424;50.956;5.320;2023-03-11T11:15:50;8.60;99.90
29453;DHT22;16424;50.956;5.320;2023-03-11T11:21:12;9.00;99.90
29453;DHT22;16424;50.956;5.320;2023-03-11T11:23:46;9.10;99.90
29453;DHT22;16424;50.956;5.320;2023-03-11T11:26:21;9.10;99.90
29453;DHT22;16424;50.956;5.320;2023-03-11T11:29:12;9.70;99.90
29453;DHT22;16424;50.956;5.320;2023-03-11T11:31:42;10.10;99.90
29453;DHT22;16424;50.956;5.320;2023-03-11T11:34:32;10.30;99.90
29453;DHT22;16424;50.956;5.320;2023-03-11T11:37:00;10.10;99.90
29453;DHT22;16424;50.956;5.320;2023-03-11T11:39:35;9.80;99.90
29453;DHT22;16424;50.956;5.320;2023-03-11T11:42:03;9.80;99.90
29453;DHT22;16424;50.956;5.320;2023-03-11T11:44:33;9.60;99.90
29453;DHT22;16424;50.956;5.320;2023-03-11T11:49:48;10.40;99.90
29453;DHT22;16424;50.956;5.320;2023-03-11T11:52:19;10.30;99.80
29453;DHT22;16424;50.956;5.320;2023-03-11T11:55:06;10.30;99.70
29453;DHT22;16424;50.956;5.320;2023-03-11T11:57:32;10.30;99.50
29453;DHT22;16424;50.956;5.320;2023-03-11T11:59:58;10.40;99.90
29453;DHT22;16424;50.956;5.320;2023-03-11T12:05:29;9.80;99.80
29453;DHT22;16424;50.956;5.320;2023-03-11T12:11:06;9.80;99.50
29453;DHT22;16424;50.956;5.320;2023-03-11T12:13:50;10.10;99.90
29453;DHT22;16424;50.956;5.320;2023-03-11T12:27:26;9.10;99.30
29453;DHT22;16424;50.956;5.320;2023-03-11T12:30:24;8.50;99.90
29453;DHT22;16424;50.956;5.320;2023-03-11T12:33:04;8.90;99.90
29453;DHT22;16424;50.956;5.320;2023-03-11T12:35:32;9.50;99.90
29453;DHT22;16424;50.956;5.320;2023-03-11T12:46:04;9.60;99.90
29453;DHT22;16424;50.956;5.320;2023-03-11T12:48:46;9.80;99.90
29453;DHT22;16424;50.956;5.320;2023-03-11T12:53:53;9.60;99.90
29453;DHT22;16424;50.956;5.320;2023-03-11T12:56:49;10.00;99.90
29453;DHT22;16424;50.956;5.320;2023-03-11T13:07:55;9.30;99.90
29453;DHT22;16424;50.956;5.320;2023-03-11T13:10:44;9.80;99.30
29453;DHT22;16424;50.956;5.320;2023-03-11T13:15:56;9.70;99.30
29453;DHT22;16424;50.956;5.320;2023-03-11T13:18:23;9.90;98.20
29453;DHT22;16424;50.956;5.320;2023-03-11T13:20:59;10.10;97.60
29453;DHT22;16424;50.956;5.320;2023-03-11T13:23:34;10.40;98.80
29453;DHT22;16424;50.956;5.320;2023-03-11T13:26:21;10.20;99.10
29453;DHT22;16424;50.956;5.320;2023-03-11T13:34:26;9.50;99.90
29453;DHT22;16424;50.956;5.320;2023-03-11T13:39:33;9.10;99.90
29453;DHT22;16424;50.956;5.320;2023-03-11T13:42:02;9.10;99.90
29453;DHT22;16424;50.956;5.320;2023-03-11T13:44:36;8.90;99.90
29453;DHT22;16424;50.956;5.320;2023-03-11T13:47:06;9.00;99.90
29453;DHT22;16424;50.956;5.320;2023-03-11T13:49:41;9.30;99.90
29453;DHT22;16424;50.956;5.320;2023-03-11T13:52:13;9.60;99.90
29453;DHT22;16424;50.956;5.320;2023-03-11T13:54:44;9.90;98.80
29453;DHT22;16424;50.956;5.320;2023-03-11T13:57:37;10.00;98.20
29453;DHT22;16424;50.956;5.320;2023-03-11T14:00:12;10.30;98.00
29453;DHT22;16424;50.956;5.320;2023-03-11T14:03:08;10.50;97.30
29453;DHT22;16424;50.956;5.320;2023-03-11T14:05:45;10.00;97.10
29453;DHT22;16424;50.956;5.320;2023-03-11T14:08:18;10.20;97.30
29453;DHT22;16424;50.956;5.320;2023-03-11T14:13:25;10.30;96.40
29453;DHT22;16424;50.956;5.320;2023-03-11T14:16:01;10.70;96.00
29453;DHT22;16424;50.956;5.320;2023-03-11T14:18:36;10.70;95.00
29453;DHT22;16424;50.956;5.320;2023-03-11T14:21:04;10.60;95.40
29453;DHT22;16424;50.956;5.320;2023-03-11T14:23:40;10.70;96.30
29453;DHT22;16424;50.956;5.320;2023-03-11T14:26:10;11.00;96.60
29453;DHT22;16424;50.956;5.320;2023-03-11T14:28:40;10.40;98.00
29453;DHT22;16424;50.956;5.320;2023-03-11T14:31:06;10.40;96.60
29453;DHT22;16424;50.956;5.320;2023-03-11T14:33:56;10.70;96.50
29453;DHT22;16424;50.956;5.320;2023-03-11T14:36:23;10.70;96.10
29453;DHT22;16424;50.956;5.320;2023-03-11T14:38:48;10.00;97.20
29453;DHT22;16424;50.956;5.320;2023-03-11T14:41:14;9.60;97.80
29453;DHT22;16424;50.956;5.320;2023-03-11T14:43:45;9.80;98.20
29453;DHT22;16424;50.956;5.320;2023-03-11T14:46:20;9.90;98.40
29453;DHT22;16424;50.956;5.320;2023-03-11T14:48:47;10.00;98.10
29453;DHT22;16424;50.956;5.320;2023-03-11T14:51:17;9.80;98.50
29453;DHT22;16424;50.956;5.320;2023-03-11T14:53:54;9.60;98.70
29453;DHT22;16424;50.956;5.320;2023-03-11T14:56:26;9.90;98.90
29453;DHT22;16424;50.956;5.320;2023-03-11T15:01:38;10.20;96.80
29453;DHT22;16424;50.956;5.320;2023-03-11T15:04:13;10.40;97.30
29453;DHT22;16424;50.956;5.320;2023-03-11T15:06:42;10.40;97.60
29453;DHT22;16424;50.956;5.320;2023-03-11T15:09:14;10.50;97.40
29453;DHT22;16424;50.956;5.320;2023-03-11T15:11:55;10.50;97.70
29453;DHT22;16424;50.956;5.320;2023-03-11T15:14:26;10.20;97.20
29453;DHT22;16424;50.956;5.320;2023-03-11T15:16:54;10.20;97.80
29453;DHT22;16424;50.956;5.320;2023-03-11T15:19:29;9.70;97.00
29453;DHT22;16424;50.956;5.320;2023-03-11T15:22:05;9.80;97.20
29453;DHT22;16424;50.956;5.320;2023-03-11T15:24:58;9.40;97.10
29453;DHT22;16424;50.956;5.320;2023-03-11T15:27:28;9.30;97.90
29453;DHT22;16424;50.956;5.320;2023-03-11T15:29:55;9.30;98.20
29453;DHT22;16424;50.956;5.320;2023-03-11T15:37:32;9.50;98.60
29453;DHT22;16424;50.956;5.320;2023-03-11T15:40:28;9.60;98.20
29453;DHT22;16424;50.956;5.320;2023-03-11T15:45:44;9.70;98.60
29453;DHT22;16424;50.956;5.320;2023-03-11T15:48:11;9.60;98.40
29453;DHT22;16424;50.956;5.320;2023-03-11T15:50:49;9.40;99.70
29453;DHT22;16424;50.956;5.320;2023-03-11T15:53:15;9.20;99.00
29453;DHT22;16424;50.956;5.320;2023-03-11T15:55:40;9.10;98.80
29453;DHT22;16424;50.956;5.320;2023-03-11T15:58:07;9.00;99.90
29453;DHT22;16424;50.956;5.320;2023-03-11T16:00:35;9.10;99.90
29453;DHT22;16424;50.956;5.320;2023-03-11T16:03:01;8.90;99.80
29453;DHT22;16424;50.956;5.320;2023-03-11T16:05:27;9.00;99.90
29453;DHT22;16424;50.956;5.320;2023-03-11T16:07:53;9.30;99.80
29453;DHT22;16424;50.956;5.320;2023-03-11T16:10:21;9.20;99.80
29453;DHT22;16424;50.956;5.320;2023-03-11T16:12:48;9.10;99.30
29453;DHT22;16424;50.956;5.320;2023-03-11T16:15:39;9.20;99.00
29453;DHT22;16424;50.956;5.320;2023-03-11T16:18:05;9.10;99.90
29453;DHT22;16424;50.956;5.320;2023-03-11T16:23:02;9.10;99.40
29453;DHT22;16424;50.956;5.320;2023-03-11T16:25:37;8.90;97.60
29453;DHT22;16424;50.956;5.320;2023-03-11T16:28:04;9.10;97.30
29453;DHT22;16424;50.956;5.320;2023-03-11T16:30:31;9.20;97.00
29453;DHT22;16424;50.956;5.320;2023-03-11T16:32:57;9.00;97.20
29453;DHT22;16424;50.956;5.320;2023-03-11T16:35:23;8.70;97.50
29453;DHT22;16424;50.956;5.320;2023-03-11T16:37:49;8.70;97.30
29453;DHT22;16424;50.956;5.320;2023-03-11T16:40:19;8.80;98.10
29453;DHT22;16424;50.956;5.320;2023-03-11T16:42:46;8.90;97.50
29453;DHT22;16424;50.956;5.320;2023-03-11T16:45:14;8.90;97.50
29453;DHT22;16424;50.956;5.320;2023-03-11T16:47:40;8.90;97.40
29453;DHT22;16424;50.956;5.320;2023-03-11T16:50:06;8.80;97.80
29453;DHT22;16424;50.956;5.320;2023-03-11T16:52:32;8.90;98.40
29453;DHT22;16424;50.956;5.320;2023-03-11T16:54:58;8.90;98.20
29453;DHT22;16424;50.956;5.320;2023-03-11T16:57:23;8.70;98.00
29453;DHT22;16424;50.956;5.320;2023-03-11T16:59:49;8.60;98.20
29453;DHT22;16424;50.956;5.320;2023-03-11T17:02:17;8.60;98.50
29453;DHT22;16424;50.956;5.320;2023-03-11T17:04:42;8.60;98.30
29453;DHT22;16424;50.956;5.320;2023-03-11T17:07:09;8.30;99.30
29453;DHT22;16424;50.956;5.320;2023-03-11T17:09:35;8.20;99.50
29453;DHT22;16424;50.956;5.320;2023-03-11T17:12:02;8.40;99.40
29453;DHT22;16424;50.956;5.320;2023-03-11T17:14:27;8.60;99.90
29453;DHT22;16424;50.956;5.320;2023-03-11T17:16:54;8.60;99.90
29453;DHT22;16424;50.956;5.320;2023-03-11T17:19:19;8.60;99.40
29453;DHT22;16424;50.956;5.320;2023-03-11T17:21:45;8.60;99.90
29453;DHT22;16424;50.956;5.320;2023-03-11T17:24:11;8.50;99.90
29453;DHT22;16424;50.956;5.320;2023-03-11T17:26:37;8.60;99.90
29453;DHT22;16424;50.956;5.320;2023-03-11T17:29:03;8.50;99.90
29453;DHT22;16424;50.956;5.320;2023-03-11T17:31:29;8.50;99.90
29453;DHT22;16424;50.956;5.320;2023-03-11T17:33:55;8.50;99.90
29453;DHT22;16424;50.956;5.320;2023-03-11T17:36:23;8.50;99.90
29453;DHT22;16424;50.956;5.320;2023-03-11T17:38:51;8.50;99.90
29453;DHT22;16424;50.956;5.320;2023-03-11T17:41:17;8.50;99.90